createdAt,value
2023-01-25T00:03:11.608Z,12.85
2023-01-25T00:07:13.024Z,12.97
2023-01-25T00:11:16.960Z,13.21
2023-01-25T00:15:18.320Z,12.96
2023-01-25T00:19:19.864Z,12.93
2023-01-25T00:23:21.246Z,12.93
2023-01-25T00:27:22.541Z,13.01
2023-01-25T00:31:47.548Z,13.19
2023-01-25T00:35:49.365Z,13.22
2023-01-25T00:39:51.602Z,12.53
2023-01-25T00:43:53.068Z,12.77
2023-01-25T00:47:56.371Z,12.66
2023-01-25T00:51:58.458Z,12.87
2023-01-25T00:55:59.756Z,13.03
2023-01-25T01:00:01.079Z,13.05
2023-01-25T01:04:03.941Z,13.19
2023-01-25T01:08:06.386Z,12.98
2023-01-25T01:12:07.751Z,12.37
2023-01-25T01:16:12.006Z,12.77
2023-01-25T01:20:13.579Z,12.40
2023-01-25T01:24:15.001Z,12.70
2023-01-25T01:28:16.404Z,12.78
2023-01-25T01:32:17.896Z,13.06
2023-01-25T01:36:21.696Z,12.43
2023-01-25T01:40:24.863Z,12.44
2023-01-25T01:44:50.221Z,12.53
2023-01-25T01:49:01.258Z,12.80
2023-01-25T01:53:02.627Z,12.69
2023-01-25T01:57:08.712Z,12.39
2023-01-25T02:01:10.882Z,12.70
2023-01-25T02:05:22.522Z,12.86
2023-01-25T02:09:26.156Z,10.96
2023-01-25T02:13:28.061Z,11.68
2023-01-25T02:17:32.587Z,12.20
2023-01-25T02:21:41.055Z,12.20
2023-01-25T02:25:42.830Z,12.50
2023-01-25T02:29:44.800Z,12.65
2023-01-25T02:33:46.124Z,12.75
2023-01-25T02:37:47.680Z,12.71
2023-01-25T02:41:49.014Z,12.07
2023-01-25T02:45:54.954Z,12.50
2023-01-25T02:49:56.269Z,12.77
2023-01-25T02:53:58.167Z,12.96
2023-01-25T02:57:59.534Z,12.94
2023-01-25T03:02:00.836Z,12.28
2023-01-25T03:06:02.229Z,12.64
2023-01-25T03:10:04.277Z,12.38
2023-01-25T03:14:05.778Z,12.16
2023-01-25T03:18:07.090Z,12.88
2023-01-25T03:22:09.618Z,12.83
2023-01-25T03:26:18.180Z,12.83
2023-01-25T03:30:19.570Z,12.71
2023-01-25T03:34:21.131Z,12.61
2023-01-25T03:38:23.209Z,12.69
2023-01-25T03:42:24.757Z,12.19
2023-01-25T03:46:26.113Z,12.09
2023-01-25T03:50:27.515Z,12.10
2023-01-25T03:54:28.875Z,11.77
2023-01-25T03:58:31.274Z,12.63
2023-01-25T04:02:32.602Z,12.35
2023-01-25T04:06:34.031Z,12.30
2023-01-25T04:10:35.346Z,12.22
2023-01-25T04:14:44.394Z,12.50
2023-01-25T04:18:46.107Z,12.75
2023-01-25T04:22:47.504Z,11.55
2023-01-25T04:26:48.824Z,10.42
2023-01-25T04:30:50.624Z,11.21
2023-01-25T04:34:51.942Z,12.18
2023-01-25T04:38:53.268Z,12.48
2023-01-25T04:42:54.680Z,12.36
2023-01-25T04:46:55.983Z,12.52
2023-01-25T04:50:57.336Z,12.64
2023-01-25T04:54:58.608Z,11.99
2023-01-25T04:58:59.951Z,12.42
2023-01-25T05:03:01.328Z,12.69
2023-01-25T05:07:02.905Z,12.42
2023-01-25T05:11:04.321Z,12.75
2023-01-25T05:15:06.397Z,12.93
2023-01-25T05:19:10.039Z,12.97
2023-01-25T05:23:11.303Z,12.89
2023-01-25T05:27:15.690Z,13.00
2023-01-25T05:31:17.104Z,12.96
2023-01-25T05:35:18.721Z,12.38
2023-01-25T05:39:20.323Z,12.45
2023-01-25T05:43:23.549Z,12.72
2023-01-25T05:47:24.886Z,11.95
2023-01-25T05:51:26.202Z,12.19
2023-01-25T05:55:27.537Z,11.86
2023-01-25T05:59:28.931Z,12.29
2023-01-25T06:03:30.357Z,11.80
2023-01-25T06:07:39.050Z,12.54
2023-01-25T06:11:43.824Z,12.09
2023-01-25T06:15:56.040Z,12.64
2023-01-25T06:19:57.473Z,12.49
2023-01-25T06:23:58.843Z,12.48
2023-01-25T06:28:00.289Z,12.60
2023-01-25T06:32:01.633Z,12.63
2023-01-25T06:36:05.665Z,12.27
2023-01-25T06:40:07.612Z,12.68
2023-01-25T06:44:09.074Z,12.69
2023-01-25T06:48:12.235Z,12.45
2023-01-25T06:52:14.136Z,12.39
2023-01-25T06:56:21.425Z,11.75
2023-01-25T07:00:23.147Z,12.10
2023-01-25T07:04:24.482Z,12.57
2023-01-25T07:08:26.070Z,12.86
2023-01-25T07:12:31.063Z,12.82
2023-01-25T07:16:36.702Z,12.89
2023-01-25T07:20:38.019Z,12.92
2023-01-25T07:24:39.361Z,12.97
2023-01-25T07:28:40.893Z,12.80
2023-01-25T07:32:42.260Z,13.01
2023-01-25T07:36:43.862Z,12.98
2023-01-25T07:40:52.001Z,13.02
2023-01-25T07:44:53.337Z,12.98
2023-01-25T07:48:54.988Z,12.89
2023-01-25T07:52:58.270Z,12.86
2023-01-25T07:56:59.584Z,12.89
2023-01-25T08:01:08.000Z,13.28
2023-01-25T08:05:09.950Z,13.09
2023-01-25T08:09:19.749Z,13.04
2023-01-25T08:13:21.061Z,12.96
2023-01-25T08:17:22.360Z,12.58
2023-01-25T08:21:25.509Z,12.82
2023-01-25T08:25:26.945Z,12.74
2023-01-25T08:29:28.295Z,12.94
2023-01-25T08:33:29.640Z,12.98
2023-01-25T08:37:31.207Z,12.98
2023-01-25T08:41:34.162Z,13.01
2023-01-25T08:45:37.003Z,13.16
2023-01-25T08:49:38.703Z,12.90
2023-01-25T08:53:40.040Z,13.11
2023-01-25T08:57:41.395Z,13.15
2023-01-25T09:01:42.782Z,13.02
2023-01-25T09:05:44.118Z,13.11
2023-01-25T09:09:45.479Z,13.32
2023-01-25T09:13:48.704Z,13.12
2023-01-25T09:17:56.466Z,12.74
2023-01-25T09:21:57.812Z,13.08
2023-01-25T09:26:01.096Z,12.88
2023-01-25T09:30:04.191Z,13.24
2023-01-25T09:34:05.943Z,13.37
2023-01-25T09:38:07.275Z,13.16
2023-01-25T09:42:45.970Z,13.17
2023-01-25T09:46:50.528Z,13.11
2023-01-25T09:50:51.806Z,13.34
2023-01-25T09:54:53.297Z,13.26
2023-01-25T09:59:01.423Z,13.30
2023-01-25T10:03:15.008Z,13.45
2023-01-25T10:07:16.566Z,12.92
2023-01-25T10:11:48.101Z,12.51
2023-01-25T10:16:25.966Z,13.34
2023-01-25T10:20:50.030Z,13.28
2023-01-25T10:25:31.704Z,13.28
2023-01-25T10:29:36.516Z,13.36
2023-01-25T10:33:43.660Z,12.89
2023-01-25T10:37:45.937Z,13.46
2023-01-25T10:41:55.799Z,12.35
2023-01-25T10:45:57.177Z,12.25
2023-01-25T10:49:59.475Z,12.79
2023-01-25T10:54:03.398Z,11.41
2023-01-25T10:58:05.989Z,12.57
2023-01-25T11:02:35.164Z,12.82
2023-01-25T11:06:38.941Z,12.35
2023-01-25T11:10:43.157Z,12.73
2023-01-25T11:14:46.151Z,12.04
2023-01-25T11:18:53.261Z,13.12
2023-01-25T11:22:56.782Z,13.19
2023-01-25T11:27:21.383Z,13.39
2023-01-25T11:31:23.004Z,13.14
2023-01-25T11:35:31.231Z,13.50
2023-01-25T11:39:54.681Z,13.30
2023-01-25T11:44:09.120Z,13.48
2023-01-25T11:48:16.617Z,13.47
2023-01-25T11:52:36.342Z,13.51
2023-01-25T11:57:01.404Z,13.37
2023-01-25T12:01:33.475Z,12.98
2023-01-25T12:05:50.052Z,13.47
2023-01-25T12:10:13.021Z,13.64
2023-01-25T12:14:36.892Z,13.58
2023-01-25T12:18:58.383Z,13.71
2023-01-25T12:23:27.396Z,12.96
2023-01-25T12:27:38.280Z,13.42
2023-01-25T12:31:46.477Z,13.53
2023-01-25T12:36:00.921Z,13.22
2023-01-25T12:40:13.798Z,13.48
2023-01-25T12:44:38.779Z,13.69
2023-01-25T12:48:47.499Z,13.66
2023-01-25T12:52:57.391Z,13.76
2023-01-25T12:57:11.886Z,13.78
2023-01-25T13:01:33.418Z,13.47
2023-01-25T13:05:58.582Z,13.64
2023-01-25T13:10:10.962Z,13.64
2023-01-25T13:14:18.503Z,13.38
2023-01-25T13:18:28.974Z,13.51
2023-01-25T13:22:45.697Z,13.72
2023-01-25T13:27:19.136Z,13.63
2023-01-25T13:31:50.976Z,13.77
2023-01-25T13:35:53.400Z,13.48
2023-01-25T13:40:06.393Z,13.62
2023-01-25T13:44:28.302Z,13.74
2023-01-25T13:48:31.917Z,12.63
2023-01-25T13:52:33.333Z,12.66
2023-01-25T13:56:35.760Z,13.04
2023-01-25T14:00:37.454Z,12.86
2023-01-25T14:04:39.375Z,13.23
2023-01-25T14:08:44.040Z,13.43
2023-01-25T14:12:46.459Z,13.48
2023-01-25T14:17:17.174Z,13.28
2023-01-25T14:21:21.073Z,12.46
2023-01-25T14:25:24.007Z,12.43
2023-01-25T14:29:32.755Z,12.86
2023-01-25T14:33:44.421Z,13.21
2023-01-25T14:37:45.708Z,13.30
2023-01-25T14:42:00.482Z,13.32
2023-01-25T14:46:31.164Z,13.30
2023-01-25T14:50:34.948Z,13.24
2023-01-25T14:54:44.588Z,13.49
2023-01-25T14:58:50.976Z,13.41
2023-01-25T15:03:01.236Z,13.71
2023-01-25T15:07:12.773Z,13.34
2023-01-25T15:11:38.515Z,13.66
2023-01-25T15:15:59.805Z,13.59
2023-01-25T15:20:01.213Z,13.41
2023-01-25T15:24:11.473Z,13.38
2023-01-25T15:28:14.900Z,13.36
2023-01-25T15:32:21.330Z,13.29
2023-01-25T15:36:23.059Z,13.34
2023-01-25T15:40:24.328Z,13.04
2023-01-25T15:44:25.692Z,13.28
2023-01-25T15:48:33.685Z,13.34
2023-01-25T15:52:35.033Z,13.38
2023-01-25T15:56:37.669Z,13.38
2023-01-25T16:00:39.059Z,13.43
2023-01-25T16:04:40.438Z,13.37
2023-01-25T16:08:41.700Z,13.46
2023-01-25T16:12:42.999Z,13.37
2023-01-25T16:16:47.234Z,13.34
2023-01-25T16:20:48.611Z,13.27
2023-01-25T16:24:49.944Z,13.25
2023-01-25T16:28:51.725Z,12.91
2023-01-25T16:32:53.783Z,13.05
2023-01-25T16:36:57.493Z,13.07
2023-01-25T16:40:58.805Z,13.20
2023-01-25T16:45:00.073Z,13.08
2023-01-25T16:49:04.241Z,13.09
2023-01-25T16:53:05.574Z,12.68
2023-01-25T16:57:19.832Z,13.16
2023-01-25T17:01:24.171Z,13.24
2023-01-25T17:05:33.822Z,13.09
2023-01-25T17:09:35.222Z,13.12
2023-01-25T17:13:36.881Z,13.00
2023-01-25T17:17:38.209Z,13.18
2023-01-25T17:21:39.504Z,13.14
2023-01-25T17:25:40.817Z,13.15
2023-01-25T17:29:42.486Z,12.75
2023-01-25T17:33:44.690Z,12.78
2023-01-25T17:37:46.122Z,12.58
2023-01-25T17:41:49.383Z,12.67
2023-01-25T17:45:50.754Z,12.67
2023-01-25T17:49:52.222Z,12.93
2023-01-25T17:53:53.888Z,12.87
2023-01-25T17:57:56.230Z,11.88
2023-01-25T18:01:57.906Z,12.79
2023-01-25T18:05:59.275Z,12.75
2023-01-25T18:10:00.549Z,12.50
2023-01-25T18:14:08.035Z,12.63
2023-01-25T18:18:09.498Z,12.57
2023-01-25T18:22:10.892Z,12.41
2023-01-25T18:26:18.063Z,12.48
2023-01-25T18:30:43.932Z,12.29
2023-01-25T18:34:47.987Z,12.27
2023-01-25T18:38:49.611Z,12.37
2023-01-25T18:42:52.702Z,12.43
2023-01-25T18:46:53.992Z,12.14
2023-01-25T18:50:55.979Z,12.21
2023-01-25T18:54:57.715Z,12.12
2023-01-25T18:58:59.245Z,12.22
2023-01-25T19:03:01.205Z,12.18
2023-01-25T19:07:02.911Z,12.13
2023-01-25T19:11:06.478Z,12.16
2023-01-25T19:15:08.884Z,12.15
2023-01-25T19:19:10.554Z,11.59
2023-01-25T19:23:12.123Z,12.11
2023-01-25T19:27:13.480Z,12.37
2023-01-25T19:31:23.521Z,12.04
2023-01-25T19:35:24.939Z,12.05
2023-01-25T19:39:26.234Z,11.75
2023-01-25T19:43:27.529Z,11.71
2023-01-25T19:47:28.798Z,11.49
2023-01-25T19:51:39.489Z,11.81
2023-01-25T19:55:40.860Z,11.61
2023-01-25T19:59:42.203Z,11.59
2023-01-25T20:03:44.088Z,11.75
2023-01-25T20:07:45.396Z,11.19
2023-01-25T20:11:47.365Z,11.41
2023-01-25T20:15:48.808Z,11.03
2023-01-25T20:19:50.470Z,10.80
2023-01-25T20:23:55.889Z,11.48
2023-01-25T20:27:57.286Z,11.94
2023-01-25T20:31:58.666Z,11.69
2023-01-25T20:36:05.546Z,11.94
2023-01-25T20:40:07.609Z,11.98
2023-01-25T20:44:11.349Z,11.82
2023-01-25T20:48:12.696Z,11.92
2023-01-25T20:52:14.008Z,11.89
2023-01-25T20:56:17.026Z,11.49
2023-01-25T21:00:18.492Z,11.28
2023-01-25T21:04:19.862Z,11.49
2023-01-25T21:08:22.008Z,11.43
2023-01-25T21:12:23.372Z,11.28
2023-01-25T21:16:24.734Z,11.55
2023-01-25T21:20:26.080Z,11.42
2023-01-25T21:24:27.446Z,11.56
2023-01-25T21:28:29.814Z,11.50
2023-01-25T21:32:31.120Z,11.77
2023-01-25T21:36:32.729Z,11.80
2023-01-25T21:40:34.104Z,10.96
2023-01-25T21:44:53.888Z,11.57
2023-01-25T21:49:16.015Z,11.56
2023-01-25T21:53:17.367Z,11.54
2023-01-25T21:57:18.728Z,11.40
2023-01-25T22:01:21.651Z,11.30
2023-01-25T22:05:22.988Z,11.18
2023-01-25T22:09:24.374Z,11.50
2023-01-25T22:13:25.689Z,11.23
2023-01-25T22:17:28.364Z,10.63
2023-01-25T22:21:32.182Z,11.29
2023-01-25T22:25:33.563Z,11.27
2023-01-25T22:29:35.036Z,11.30
2023-01-25T22:33:36.386Z,11.34
2023-01-25T22:37:38.079Z,11.36
2023-01-25T22:41:39.444Z,10.80
2023-01-25T22:45:49.203Z,10.88
2023-01-25T22:49:50.460Z,11.12
2023-01-25T22:53:52.297Z,10.83
2023-01-25T22:57:53.700Z,11.20
2023-01-25T23:01:55.091Z,10.97
2023-01-25T23:06:04.679Z,10.14
2023-01-25T23:10:06.406Z,11.07
2023-01-25T23:14:30.332Z,11.07
2023-01-25T23:18:50.098Z,10.84
2023-01-25T23:22:51.956Z,10.85
2023-01-25T23:26:53.351Z,11.15
2023-01-25T23:31:11.191Z,11.01
2023-01-25T23:35:12.797Z,10.66
2023-01-25T23:39:14.599Z,11.06
2023-01-25T23:43:15.998Z,11.07
2023-01-25T23:47:18.265Z,11.02
2023-01-25T23:51:20.479Z,10.28
2023-01-25T23:55:21.807Z,10.76
2023-01-25T23:59:23.153Z,10.93
